Time;durP1;ratioP1;P1;durP2;ratioP2;P2;SDS_P1;SDS_P2;PMS_P1;PMS_P2;Temp;Humidity;BMP_temperature;BMP_pressure;BME280_temperature;BME280_humidity;BME280_pressure;Samples;Min_cycle;Max_cycle;Signal;HPM_P1;HPM_P2
2021/05/31 00:00:29;;;;;;;3.58;3.28;;;15.50;99.90;;;;;;5035784;28;20022;-75
2021/05/31 00:02:54;;;;;;;3.72;3.42;;;15.60;99.90;;;;;;5037061;28;20025;-75
2021/05/31 00:05:25;;;;;;;3.58;3.28;;;15.60;99.90;;;;;;5028580;28;20033;-75
2021/05/31 00:07:52;;;;;;;2.97;2.78;;;15.60;99.90;;;;;;5032925;28;20025;-75
2021/05/31 00:10:19;;;;;;;3.97;3.47;;;15.50;99.90;;;;;;5036949;28;20029;-76
2021/05/31 00:12:45;;;;;;;3.78;3.47;;;15.40;99.90;;;;;;5021531;28;20026;-75
2021/05/31 00:15:11;;;;;;;3.38;3.05;;;15.30;99.90;;;;;;5043826;28;20032;-75
2021/05/31 00:17:37;;;;;;;3.38;3.08;;;15.20;99.90;;;;;;5041204;28;20037;-75
2021/05/31 00:20:06;;;;;;;4.20;3.35;;;15.20;99.90;;;;;;5042315;28;20047;-75
2021/05/31 00:22:32;;;;;;;5.65;3.70;;;15.30;99.90;;;;;;5039304;28;20025;-75
2021/05/31 00:24:58;;;;;;;7.45;4.07;;;15.40;99.90;;;;;;5037149;28;20028;-73
2021/05/31 00:27:23;;;;;;;5.10;4.25;;;15.50;99.90;;;;;;5021195;28;20527;-74
2021/05/31 00:29:49;;;;;;;3.70;3.40;;;15.40;99.90;;;;;;5043248;28;20032;-78
2021/05/31 00:32:15;;;;;;;5.43;3.47;;;15.40;99.90;;;;;;5009054;28;20407;-74
2021/05/31 00:34:41;;;;;;;6.60;3.67;;;15.40;99.90;;;;;;5036017;28;20021;-74
2021/05/31 00:37:07;;;;;;;4.22;3.35;;;15.40;99.90;;;;;;5035809;28;20112;-73
2021/05/31 00:39:33;;;;;;;3.20;2.97;;;15.40;99.90;;;;;;5036069;28;20057;-73
2021/05/31 00:41:59;;;;;;;5.47;3.88;;;15.40;99.90;;;;;;5036219;28;20032;-74
2021/05/31 00:44:26;;;;;;;5.85;3.92;;;15.40;99.90;;;;;;5034516;28;20028;-75
2021/05/31 00:46:53;;;;;;;5.07;3.22;;;15.30;99.90;;;;;;5035846;28;20053;-74
2021/05/31 00:49:21;;;;;;;4.78;3.42;;;15.30;99.90;;;;;;5036036;28;20483;-75
2021/05/31 00:51:47;;;;;;;3.90;3.40;;;15.40;99.90;;;;;;5034238;28;20037;-75
2021/05/31 00:54:13;;;;;;;7.57;3.97;;;15.40;99.90;;;;;;5036935;28;20185;-76
2021/05/31 00:56:41;;;;;;;4.88;3.38;;;15.40;99.90;;;;;;5039516;28;20026;-75
2021/05/31 00:59:08;;;;;;;3.70;3.40;;;15.40;99.90;;;;;;5022825;28;20033;-75
2021/05/31 01:01:34;;;;;;;4.25;3.55;;;15.30;99.90;;;;;;5042772;28;20026;-76
2021/05/31 01:04:01;;;;;;;3.22;3.00;;;15.30;99.90;;;;;;5044228;28;20057;-76
2021/05/31 01:06:32;;;;;;;5.93;4.05;;;15.30;99.90;;;;;;5026183;28;20517;-75
2021/05/31 01:09:15;;;;;;;3.47;3.17;;;15.40;99.90;;;;;;5044389;28;20021;-75
2021/05/31 01:12:17;;;;;;;13.77;4.20;;;15.30;99.90;;;;;;5043240;28;20032;-75
2021/05/31 01:15:02;;;;;;;3.72;3.42;;;15.20;99.90;;;;;;5011254;28;20179;-75
2021/05/31 01:17:30;;;;;;;4.10;3.42;;;15.00;99.90;;;;;;5038309;28;20035;-75
2021/05/31 01:20:04;;;;;;;4.63;3.47;;;14.80;99.90;;;;;;5028188;28;20045;-76
2021/05/31 01:22:35;;;;;;;18.15;4.30;;;14.70;99.90;;;;;;5045061;28;20025;-76
2021/05/31 01:25:25;;;;;;;5.00;3.33;;;14.90;99.90;;;;;;5045278;28;20021;-76
2021/05/31 01:28:12;;;;;;;4.20;3.80;;;14.90;99.90;;;;;;5049337;28;20021;-74
2021/05/31 01:30:49;;;;;;;4.07;3.72;;;14.90;99.90;;;;;;5045914;28;20030;-76
2021/05/31 01:33:19;;;;;;;7.50;3.40;;;15.00;99.90;;;;;;5028484;28;20025;-76
2021/05/31 01:35:46;;;;;;;4.85;3.30;;;14.90;99.90;;;;;;5045841;28;20030;-76
2021/05/31 01:38:15;;;;;;;4.18;3.65;;;14.90;99.90;;;;;;5044960;28;20163;-74
2021/05/31 01:40:41;;;;;;;3.97;3.67;;;15.00;99.90;;;;;;5053064;28;20057;-75
2021/05/31 01:43:08;;;;;;;3.50;3.20;;;15.00;99.90;;;;;;5055031;28;20037;-75
2021/05/31 01:45:34;;;;;;;5.82;2.80;;;15.10;99.90;;;;;;5048255;28;20017;-76
2021/05/31 01:48:00;;;;;;;3.03;2.72;;;15.00;99.90;;;;;;5056313;28;20017;-74
2021/05/31 01:50:29;;;;;;;3.67;3.38;;;15.00;99.90;;;;;;5056000;28;20026;-75
2021/05/31 01:52:55;;;;;;;4.43;4.13;;;15.00;99.90;;;;;;5018890;28;20043;-75
2021/05/31 01:55:21;;;;;;;3.47;3.17;;;15.00;99.90;;;;;;5045546;28;20074;-74
2021/05/31 01:57:48;;;;;;;3.53;3.15;;;15.00;99.90;;;;;;5047992;28;20060;-74
2021/05/31 02:00:15;;;;;;;4.82;3.50;;;15.00;99.90;;;;;;5047372;28;20040;-74
2021/05/31 02:02:42;;;;;;;4.13;3.63;;;15.00;99.90;;;;;;5047657;28;20045;-75
2021/05/31 02:05:09;;;;;;;3.75;3.45;;;15.00;99.90;;;;;;5039264;28;20022;-74
2021/05/31 02:07:38;;;;;;;5.28;3.55;;;15.00;99.90;;;;;;5037993;28;20022;-76
2021/05/31 02:10:06;;;;;;;3.05;2.85;;;15.00;99.90;;;;;;5036836;28;20510;-74
2021/05/31 02:12:53;;;;;;;5.05;3.47;;;14.90;99.90;;;;;;5034280;28;20091;-76
2021/05/31 02:15:26;;;;;;;5.65;3.75;;;14.90;99.90;;;;;;5010864;28;20025;-77
2021/05/31 02:18:02;;;;;;;4.15;3.72;;;14.80;99.90;;;;;;5032567;28;20561;-74
2021/05/31 02:20:29;;;;;;;3.55;3.25;;;14.70;99.90;;;;;;5032528;28;20021;-75
2021/05/31 02:22:58;;;;;;;7.18;3.58;;;14.60;99.90;;;;;;5016797;28;20431;-76
2021/05/31 02:25:26;;;;;;;6.32;3.30;;;14.60;99.90;;;;;;5032250;28;20053;-75
2021/05/31 02:27:53;;;;;;;6.25;3.75;;;14.50;99.90;;;;;;5014647;28;20092;-75
2021/05/31 02:30:20;;;;;;;4.03;3.63;;;14.50;99.90;;;;;;5031470;28;20105;-75
2021/05/31 02:32:52;;;;;;;3.75;3.45;;;14.50;99.90;;;;;;5034483;28;20025;-74
2021/05/31 02:35:18;;;;;;;4.38;3.70;;;14.40;99.90;;;;;;5033328;28;20033;-76
2021/05/31 02:37:44;;;;;;;4.03;3.70;;;14.30;99.90;;;;;;5031305;28;20100;-76
2021/05/31 02:40:11;;;;;;;4.22;2.95;;;14.40;99.90;;;;;;5032759;28;20097;-75
2021/05/31 02:42:51;;;;;;;3.72;3.42;;;14.30;99.90;;;;;;5034880;28;20505;-76
2021/05/31 02:45:18;;;;;;;3.78;2.80;;;14.30;99.90;;;;;;5045478;28;20029;-76
2021/05/31 02:47:45;;;;;;;4.93;3.22;;;14.20;99.90;;;;;;5041839;28;20028;-75
2021/05/31 02:50:12;;;;;;;3.67;3.33;;;14.20;99.90;;;;;;5031063;28;20105;-75
2021/05/31 02:52:41;;;;;;;3.50;2.90;;;14.20;99.90;;;;;;5016075;28;20068;-75
2021/05/31 02:55:12;;;;;;;4.95;3.88;;;14.20;99.90;;;;;;5025063;28;20112;-76
2021/05/31 02:57:39;;;;;;;3.75;3.45;;;14.30;99.90;;;;;;5013868;28;20029;-76
2021/05/31 03:00:09;;;;;;;4.10;3.80;;;14.30;99.90;;;;;;5032162;28;20435;-74
2021/05/31 03:02:34;;;;;;;3.50;3.20;;;14.40;99.90;;;;;;5031454;28;20467;-74
2021/05/31 03:05:00;;;;;;;4.18;3.78;;;14.30;99.90;;;;;;5031206;28;20030;-77
2021/05/31 03:07:26;;;;;;;5.60;3.15;;;14.20;99.90;;;;;;5031791;28;20025;-77
2021/05/31 03:09:52;;;;;;;3.75;3.45;;;14.30;99.90;;;;;;5031329;28;20639;-75
2021/05/31 03:12:18;;;;;;;7.05;3.85;;;14.20;99.90;;;;;;5030621;28;20037;-75
2021/05/31 03:14:44;;;;;;;4.47;4.18;;;14.20;99.90;;;;;;5030850;28;20046;-75
2021/05/31 03:17:10;;;;;;;4.65;4.25;;;14.20;99.90;;;;;;5030642;28;20030;-74
2021/05/31 03:19:36;;;;;;;8.68;3.90;;;14.20;99.90;;;;;;5030826;28;20136;-74
2021/05/31 03:22:01;;;;;;;4.00;3.70;;;14.10;99.90;;;;;;5030656;28;20037;-74
2021/05/31 03:24:27;;;;;;;7.80;4.28;;;13.90;99.90;;;;;;5030194;28;20021;-76
2021/05/31 03:26:53;;;;;;;4.07;3.75;;;14.10;99.90;;;;;;5031563;28;20025;-74
2021/05/31 03:29:19;;;;;;;4.45;4.05;;;14.10;99.90;;;;;;5031463;28;20030;-78
2021/05/31 03:31:44;;;;;;;5.32;4.07;;;14.20;99.90;;;;;;5013646;28;20029;-74
2021/05/31 03:34:10;;;;;;;3.33;3.03;;;14.20;99.90;;;;;;5031973;28;20021;-74
2021/05/31 03:36:36;;;;;;;4.80;4.40;;;14.20;99.90;;;;;;5027134;28;20029;-74
2021/05/31 03:39:05;;;;;;;3.63;3.33;;;14.20;99.90;;;;;;5031504;28;20025;-74
2021/05/31 03:41:31;;;;;;;8.45;4.15;;;14.20;99.90;;;;;;5031623;28;20065;-76
2021/05/31 03:43:57;;;;;;;4.00;3.60;;;14.20;99.90;;;;;;5029828;28;20022;-76
2021/05/31 03:46:23;;;;;;;5.07;4.63;;;14.20;99.90;;;;;;5028007;28;20024;-75
2021/05/31 03:48:51;;;;;;;4.75;4.13;;;14.20;99.90;;;;;;5030879;28;20025;-74
2021/05/31 03:51:18;;;;;;;5.07;4.68;;;14.10;99.90;;;;;;5014617;28;20025;-75
2021/05/31 03:53:44;;;;;;;3.25;2.88;;;14.00;99.90;;;;;;5013635;28;20014;-75
2021/05/31 03:56:10;;;;;;;6.00;3.72;;;14.10;99.90;;;;;;5030914;28;20097;-76
2021/05/31 03:58:37;;;;;;;3.08;2.85;;;14.10;99.90;;;;;;5030862;28;20498;-75
2021/05/31 04:01:04;;;;;;;4.05;3.72;;;14.10;99.90;;;;;;5030091;28;20029;-75
2021/05/31 04:03:30;;;;;;;4.28;3.45;;;14.00;99.90;;;;;;5031494;28;20406;-78
2021/05/31 04:11:37;;;;;;;4.40;3.50;;;14.30;99.90;;;;;;5029702;28;20446;-76
2021/05/31 04:14:13;;;;;;;7.35;3.33;;;14.40;99.90;;;;;;5029642;28;20032;-77
2021/05/31 04:16:41;;;;;;;5.15;3.70;;;14.40;99.90;;;;;;5027140;28;20078;-77
2021/05/31 04:19:08;;;;;;;3.92;3.55;;;14.50;99.90;;;;;;5030741;28;20475;-75
2021/05/31 04:21:35;;;;;;;3.78;3.42;;;14.40;99.90;;;;;;5028575;28;20037;-76
2021/05/31 04:24:02;;;;;;;5.32;3.03;;;14.60;99.90;;;;;;5029932;28;20049;-75
2021/05/31 04:26:29;;;;;;;3.85;3.58;;;14.70;99.90;;;;;;5030499;28;20072;-76
2021/05/31 04:28:55;;;;;;;4.38;3.97;;;14.70;99.90;;;;;;5012979;28;20023;-76
2021/05/31 04:31:22;;;;;;;3.92;3.63;;;14.60;99.90;;;;;;5034335;28;20072;-76
2021/05/31 04:33:47;;;;;;;3.63;3.40;;;14.50;99.90;;;;;;5035456;28;20527;-76
2021/05/31 04:36:13;;;;;;;6.65;4.05;;;14.50;99.90;;;;;;5032063;28;20049;-78
2021/05/31 04:38:39;;;;;;;4.32;3.92;;;14.40;99.90;;;;;;5035860;28;20026;-77
2021/05/31 04:41:05;;;;;;;4.88;4.45;;;14.50;99.90;;;;;;5034360;28;20102;-77
2021/05/31 04:43:31;;;;;;;7.30;4.53;;;14.50;99.90;;;;;;5015722;28;20032;-75
2021/05/31 04:45:57;;;;;;;5.95;4.28;;;14.60;99.90;;;;;;5025257;28;20476;-77
2021/05/31 04:48:23;;;;;;;4.30;3.58;;;14.60;99.90;;;;;;5033453;28;20029;-77
2021/05/31 04:50:56;;;;;;;4.13;3.70;;;14.60;99.90;;;;;;5030327;28;20029;-76
2021/05/31 04:53:22;;;;;;;4.25;3.95;;;14.60;99.90;;;;;;5033386;28;20036;-76
2021/05/31 04:55:48;;;;;;;4.20;3.72;;;14.70;99.90;;;;;;5033668;28;20026;-76
2021/05/31 04:58:14;;;;;;;5.35;4.60;;;14.90;99.90;;;;;;5029921;28;20025;-75
2021/05/31 05:00:40;;;;;;;3.92;3.63;;;15.00;99.90;;;;;;5034215;28;20021;-77
2021/05/31 05:03:05;;;;;;;5.82;3.80;;;15.20;99.90;;;;;;5017195;28;20025;-78
2021/05/31 05:05:31;;;;;;;3.85;3.55;;;15.10;99.90;;;;;;5032845;28;20024;-75
2021/05/31 05:07:57;;;;;;;4.10;3.72;;;15.10;99.90;;;;;;5029432;28;20037;-76
2021/05/31 05:10:23;;;;;;;5.40;3.78;;;15.10;99.90;;;;;;5032194;28;20091;-76
2021/05/31 05:12:50;;;;;;;4.03;3.28;;;15.20;99.90;;;;;;5034430;28;20033;-76
2021/05/31 05:15:17;;;;;;;4.10;3.75;;;15.10;99.90;;;;;;5015327;28;20438;-77
2021/05/31 05:17:45;;;;;;;3.97;3.45;;;15.30;99.90;;;;;;5033890;28;20036;-76
2021/05/31 05:20:12;;;;;;;4.32;4.03;;;15.30;99.90;;;;;;5034003;28;20014;-77
2021/05/31 05:22:38;;;;;;;4.25;3.88;;;15.40;99.90;;;;;;5033296;28;20029;-75
2021/05/31 05:25:05;;;;;;;3.83;3.53;;;15.40;99.90;;;;;;5017136;28;20373;-76
2021/05/31 05:27:31;;;;;;;8.25;4.40;;;15.50;99.90;;;;;;5032895;28;20029;-77
2021/05/31 05:29:57;;;;;;;4.00;3.70;;;15.60;99.90;;;;;;5032565;28;20029;-78
2021/05/31 05:32:23;;;;;;;4.57;3.72;;;15.80;99.90;;;;;;5033228;28;20040;-77
2021/05/31 05:34:50;;;;;;;4.32;3.92;;;15.80;99.90;;;;;;5033631;28;20025;-76
2021/05/31 05:37:24;;;;;;;4.05;3.53;;;15.80;99.90;;;;;;5014906;28;20051;-76
2021/05/31 05:40:17;;;;;;;7.05;3.55;;;15.90;99.90;;;;;;5032986;28;20049;-77
2021/05/31 05:47:46;;;;;;;3.65;3.35;;;16.10;99.90;;;;;;5030352;28;20026;-77
2021/05/31 05:50:20;;;;;;;3.67;3.30;;;16.20;99.90;;;;;;5033869;28;20017;-76
2021/05/31 05:52:49;;;;;;;4.15;3.50;;;16.30;99.90;;;;;;5032429;28;20032;-77
2021/05/31 05:55:16;;;;;;;3.47;2.88;;;16.40;99.90;;;;;;5032489;28;20078;-76
2021/05/31 05:57:43;;;;;;;3.47;2.78;;;16.50;99.90;;;;;;5029196;28;20034;-77
2021/05/31 06:00:15;;;;;;;3.78;3.47;;;16.50;99.90;;;;;;5029578;28;20033;-77
2021/05/31 06:02:41;;;;;;;3.83;3.47;;;16.50;99.90;;;;;;5032218;28;20495;-77
2021/05/31 06:05:08;;;;;;;7.38;3.47;;;16.50;99.90;;;;;;5033335;28;20116;-77
2021/05/31 06:07:35;;;;;;;12.18;4.40;;;16.50;99.90;;;;;;5032434;28;20387;-76
2021/05/31 06:10:01;;;;;;;3.72;3.28;;;16.60;99.90;;;;;;5032607;28;20030;-77
2021/05/31 06:12:27;;;;;;;8.15;3.25;;;16.60;99.90;;;;;;5033459;28;20029;-76
2021/05/31 06:14:54;;;;;;;3.58;3.20;;;16.70;99.90;;;;;;5029206;28;20663;-77
2021/05/31 06:17:20;;;;;;;3.40;3.08;;;16.70;99.90;;;;;;5018480;28;20840;-76
2021/05/31 06:19:45;;;;;;;3.97;3.58;;;16.60;99.90;;;;;;5032516;28;20472;-76
2021/05/31 06:22:11;;;;;;;3.58;3.28;;;16.80;99.90;;;;;;5028488;28;20032;-76
2021/05/31 06:24:37;;;;;;;4.57;4.15;;;17.00;99.90;;;;;;5034190;28;20029;-77
2021/05/31 06:27:03;;;;;;;4.07;3.78;;;17.10;99.90;;;;;;5014940;28;20033;-76
2021/05/31 06:29:29;;;;;;;4.40;3.38;;;17.10;99.90;;;;;;5032230;28;20140;-76
2021/05/31 06:31:55;;;;;;;3.75;2.72;;;17.20;99.90;;;;;;5032093;28;20128;-77
2021/05/31 06:34:21;;;;;;;4.35;3.30;;;17.20;99.90;;;;;;5032235;28;20029;-76
2021/05/31 06:36:49;;;;;;;4.38;3.97;;;17.30;99.90;;;;;;5031680;28;20380;-76
2021/05/31 06:39:15;;;;;;;8.18;3.47;;;17.30;99.90;;;;;;5029026;28;20506;-76
2021/05/31 06:41:41;;;;;;;5.20;3.28;;;17.50;99.90;;;;;;5028945;28;20053;-78
2021/05/31 06:44:07;;;;;;;3.90;3.50;;;17.50;99.90;;;;;;5035448;28;20089;-76
2021/05/31 06:46:33;;;;;;;17.10;10.63;;;17.40;99.90;;;;;;5033343;28;20026;-76
2021/05/31 06:49:00;;;;;;;3.63;3.13;;;17.50;99.90;;;;;;5030265;28;20131;-76
2021/05/31 06:51:26;;;;;;;4.43;3.47;;;17.80;99.90;;;;;;5031281;28;20017;-71
2021/05/31 06:53:52;;;;;;;3.30;2.90;;;17.70;99.90;;;;;;5009927;28;20022;-71
2021/05/31 06:56:19;;;;;;;6.55;4.25;;;17.50;99.90;;;;;;5030505;28;20025;-72
2021/05/31 06:58:45;;;;;;;3.33;2.75;;;17.50;99.90;;;;;;5029067;28;20467;-71
2021/05/31 07:01:11;;;;;;;3.08;2.85;;;17.60;99.90;;;;;;5029639;28;20017;-73
2021/05/31 07:03:38;;;;;;;4.20;3.80;;;17.70;99.90;;;;;;5031332;28;20056;-71
2021/05/31 07:06:05;;;;;;;5.28;3.00;;;18.00;99.90;;;;;;5016458;28;20414;-71
2021/05/31 07:08:31;;;;;;;4.15;3.75;;;18.10;99.90;;;;;;5028265;28;20379;-72
2021/05/31 07:10:59;;;;;;;5.97;3.10;;;18.20;99.90;;;;;;5027877;28;20531;-72
2021/05/31 07:13:26;;;;;;;3.33;3.03;;;18.30;99.90;;;;;;5029580;28;20025;-71
2021/05/31 07:15:56;;;;;;;3.05;2.85;;;18.10;99.90;;;;;;5028920;28;20056;-71
2021/05/31 07:18:22;;;;;;;2.58;2.38;;;18.20;99.90;;;;;;5028917;28;20021;-73
2021/05/31 07:20:49;;;;;;;4.00;2.78;;;18.00;99.90;;;;;;5024660;28;20549;-73
2021/05/31 07:23:16;;;;;;;2.65;2.45;;;18.00;99.90;;;;;;5027756;28;20076;-72
2021/05/31 07:25:42;;;;;;;2.72;2.40;;;18.20;99.90;;;;;;5029439;28;20034;-71
2021/05/31 07:28:08;;;;;;;2.67;2.25;;;18.20;99.90;;;;;;5025947;28;20037;-71
2021/05/31 07:30:34;;;;;;;3.03;2.83;;;18.20;99.90;;;;;;5029713;28;20424;-72
2021/05/31 07:33:00;;;;;;;2.45;2.25;;;18.00;99.90;;;;;;5031243;28;20631;-72
2021/05/31 07:35:26;;;;;;;4.38;2.35;;;18.20;99.90;;;;;;5030852;28;20029;-72
2021/05/31 07:37:52;;;;;;;2.88;2.67;;;18.40;99.90;;;;;;5029888;28;20028;-72
2021/05/31 07:40:18;;;;;;;2.30;2.20;;;18.40;99.90;;;;;;5026959;28;20387;-72
2021/05/31 07:42:45;;;;;;;3.17;2.85;;;18.50;99.90;;;;;;5030466;28;20152;-71
2021/05/31 07:45:14;;;;;;;3.05;2.75;;;18.40;99.90;;;;;;5031045;28;20540;-72
2021/05/31 07:47:40;;;;;;;4.63;3.10;;;18.50;99.90;;;;;;5029048;28;20036;-71
2021/05/31 07:50:07;;;;;;;2.90;2.70;;;18.60;99.90;;;;;;5030049;28;20030;-71
2021/05/31 07:52:33;;;;;;;3.30;2.47;;;18.70;99.90;;;;;;5010747;28;20086;-72
2021/05/31 07:55:00;;;;;;;3.03;2.83;;;18.70;99.90;;;;;;5029804;28;20028;-72
2021/05/31 07:57:26;;;;;;;4.32;3.15;;;18.90;99.90;;;;;;5025456;28;20045;-72
2021/05/31 07:59:53;;;;;;;5.30;3.58;;;19.10;99.90;;;;;;5023337;28;20025;-72
2021/05/31 08:02:19;;;;;;;3.63;3.33;;;19.20;99.90;;;;;;5028427;28;20029;-70
2021/05/31 08:04:45;;;;;;;3.25;2.60;;;19.10;99.90;;;;;;5030111;28;20096;-71
2021/05/31 08:07:12;;;;;;;2.67;2.47;;;19.20;99.90;;;;;;5026738;28;20136;-71
2021/05/31 08:09:38;;;;;;;4.40;2.65;;;19.30;99.90;;;;;;5011988;28;20116;-72
2021/05/31 08:12:05;;;;;;;4.78;3.17;;;19.30;99.90;;;;;;5029393;28;20029;-75
2021/05/31 08:14:31;;;;;;;2.75;2.55;;;19.40;99.90;;;;;;5028821;28;20037;-74
2021/05/31 08:16:57;;;;;;;3.03;2.42;;;19.50;99.90;;;;;;5011726;28;20037;-72
2021/05/31 08:19:25;;;;;;;4.60;2.78;;;19.30;99.90;;;;;;5028710;28;20391;-74
2021/05/31 08:21:52;;;;;;;2.67;2.47;;;19.20;99.90;;;;;;5029430;28;20442;-71
2021/05/31 08:24:19;;;;;;;2.63;2.42;;;19.30;99.90;;;;;;5027179;28;20436;-71
2021/05/31 08:26:46;;;;;;;2.70;2.05;;;19.40;99.90;;;;;;5028760;28;20435;-73
2021/05/31 08:29:12;;;;;;;3.85;2.70;;;19.30;99.90;;;;;;5029261;28;20414;-72
2021/05/31 08:31:38;;;;;;;3.00;2.70;;;19.30;99.90;;;;;;5029144;28;20068;-73
2021/05/31 08:34:04;;;;;;;2.78;2.58;;;19.40;99.90;;;;;;5011014;28;20033;-72
2021/05/31 08:36:30;;;;;;;4.22;2.63;;;19.50;99.90;;;;;;5030481;28;20505;-72
2021/05/31 08:38:58;;;;;;;2.35;2.22;;;19.60;99.90;;;;;;5028224;28;20029;-73
2021/05/31 08:41:28;;;;;;;5.10;3.13;;;19.60;99.90;;;;;;5029875;28;20029;-72
2021/05/31 08:43:55;;;;;;;3.95;2.28;;;19.60;99.90;;;;;;5030457;28;20376;-73
2021/05/31 08:46:21;;;;;;;2.50;2.30;;;19.50;99.90;;;;;;5031243;28;20022;-72
2021/05/31 08:48:47;;;;;;;2.80;2.60;;;19.60;99.90;;;;;;5011876;28;20363;-71
2021/05/31 08:51:13;;;;;;;11.55;3.13;;;19.80;99.90;;;;;;5031767;28;20079;-72
2021/05/31 08:53:42;;;;;;;3.38;2.50;;;20.10;99.90;;;;;;5031758;28;20038;-72
2021/05/31 08:56:08;;;;;;;2.25;1.92;;;20.00;99.90;;;;;;5029369;28;20030;-72
2021/05/31 08:58:34;;;;;;;2.03;1.88;;;20.00;99.90;;;;;;5029286;28;20075;-75
2021/05/31 09:01:00;;;;;;;2.55;1.90;;;20.00;99.90;;;;;;5030209;28;20032;-71
2021/05/31 09:03:25;;;;;;;3.95;2.00;;;19.80;99.90;;;;;;5029835;28;20116;-74
2021/05/31 09:06:01;;;;;;;3.33;2.60;;;19.70;99.90;;;;;;5030352;28;20123;-73
2021/05/31 09:08:27;;;;;;;5.32;2.45;;;19.80;99.90;;;;;;5030674;28;20025;-73
2021/05/31 09:11:01;;;;;;;5.53;2.47;;;19.70;99.90;;;;;;5028702;28;20484;-70
2021/05/31 09:13:31;;;;;;;4.72;2.30;;;20.00;99.90;;;;;;5029493;28;20109;-70
2021/05/31 09:16:24;;;;;;;2.45;2.17;;;20.10;99.90;;;;;;5029843;28;20044;-72
2021/05/31 09:18:54;;;;;;;4.13;2.10;;;20.10;99.90;;;;;;5026000;28;20046;-72
2021/05/31 09:21:21;;;;;;;2.45;2.08;;;20.10;99.90;;;;;;5031841;28;20100;-72
2021/05/31 09:23:52;;;;;;;1.77;1.67;;;20.40;99.90;;;;;;5032289;28;20032;-72
2021/05/31 09:26:18;;;;;;;2.78;2.55;;;20.40;99.90;;;;;;5031804;28;20391;-73
2021/05/31 09:28:53;;;;;;;1.80;1.70;;;20.30;99.40;;;;;;5014872;28;20033;-71
2021/05/31 09:31:21;;;;;;;2.80;2.28;;;20.30;98.80;;;;;;5030733;28;20025;-71
2021/05/31 09:34:00;;;;;;;3.45;3.15;;;20.20;99.30;;;;;;5032965;28;20048;-71
2021/05/31 09:36:28;;;;;;;2.42;2.22;;;20.40;99.70;;;;;;5031499;28;20021;-72
2021/05/31 09:38:54;;;;;;;4.13;2.15;;;20.50;99.50;;;;;;5031451;28;20167;-71
2021/05/31 09:41:29;;;;;;;2.65;2.45;;;20.80;99.90;;;;;;5032601;28;20037;-72
2021/05/31 09:43:58;;;;;;;2.58;2.25;;;20.90;99.90;;;;;;5034970;28;20017;-73
2021/05/31 09:46:36;;;;;;;11.65;2.78;;;21.10;99.50;;;;;;5033699;28;20025;-72
2021/05/31 09:49:12;;;;;;;2.17;2.08;;;21.10;99.90;;;;;;5032080;28;20080;-71
2021/05/31 09:51:54;;;;;;;3.22;2.25;;;21.00;99.90;;;;;;5028811;28;20288;-71
2021/05/31 09:54:27;;;;;;;3.45;1.92;;;21.10;99.90;;;;;;5032906;28;20120;-73
2021/05/31 09:56:53;;;;;;;4.90;2.88;;;21.30;99.90;;;;;;5032607;28;20499;-72
2021/05/31 09:59:22;;;;;;;3.75;3.42;;;21.50;99.90;;;;;;5032905;28;20100;-72
2021/05/31 10:01:48;;;;;;;3.15;2.83;;;21.20;99.90;;;;;;5034346;28;20018;-74
2021/05/31 10:04:25;;;;;;;2.58;2.38;;;20.90;99.90;;;;;;5036678;28;20395;-72
2021/05/31 10:09:19;;;;;;;2.70;2.50;;;20.70;99.90;;;;;;5032883;28;20037;-72
2021/05/31 10:11:46;;;;;;;6.80;3.13;;;20.70;99.90;;;;;;5015084;28;20032;-70
2021/05/31 10:14:14;;;;;;;3.35;3.05;;;20.50;99.90;;;;;;5033206;28;20390;-72
2021/05/31 10:16:42;;;;;;;2.75;2.55;;;20.30;99.90;;;;;;5031169;28;20068;-72
2021/05/31 10:19:08;;;;;;;3.58;2.45;;;20.10;99.90;;;;;;5032671;28;20033;-72
2021/05/31 10:21:34;;;;;;;5.47;2.92;;;20.10;99.90;;;;;;5029835;28;20026;-71
2021/05/31 10:24:01;;;;;;;5.10;2.85;;;20.10;99.90;;;;;;5030438;28;20017;-71
2021/05/31 10:26:29;;;;;;;5.88;3.63;;;20.00;99.90;;;;;;5031572;28;20025;-72
2021/05/31 10:28:55;;;;;;;3.22;2.75;;;20.00;99.90;;;;;;5032491;28;20104;-72
2021/05/31 10:31:21;;;;;;;5.47;3.58;;;19.90;99.90;;;;;;5033402;28;20383;-71
2021/05/31 10:34:00;;;;;;;7.10;2.78;;;19.80;99.90;;;;;;5032780;28;20069;-71
2021/05/31 10:36:32;;;;;;;2.42;2.22;;;19.80;99.90;;;;;;5013693;28;20628;-72
2021/05/31 10:39:02;;;;;;;;;;;19.80;99.90;;;;;;5032467;28;20030;-72
2021/05/31 10:41:30;;;;;;;2.85;2.65;;;20.00;99.90;;;;;;5019085;28;19920;-73
2021/05/31 10:43:58;;;;;;;3.33;2.95;;;20.00;99.90;;;;;;5033225;28;20357;-73
2021/05/31 10:46:35;;;;;;;3.05;2.28;;;20.20;99.90;;;;;;5033191;28;20024;-72
2021/05/31 10:49:04;;;;;;;8.27;2.40;;;20.30;99.90;;;;;;5033605;28;20033;-72
2021/05/31 10:51:35;;;;;;;2.13;1.90;;;20.20;99.90;;;;;;5035974;28;20025;-71
2021/05/31 10:54:15;;;;;;;3.72;2.42;;;19.80;99.90;;;;;;5016380;28;20025;-73
2021/05/31 10:56:43;;;;;;;4.00;2.80;;;19.90;99.90;;;;;;5029913;28;20022;-72
2021/05/31 10:59:15;;;;;;;3.10;2.80;;;19.90;99.90;;;;;;5014472;28;20037;-72
2021/05/31 11:01:40;;;;;;;;;;;19.90;99.90;;;;;;5030720;28;20089;-72
2021/05/31 11:04:10;;;;;;;2.88;2.58;;;19.90;99.90;;;;;;5031049;28;19967;-70
2021/05/31 11:06:39;;;;;;;4.70;3.45;;;19.80;99.90;;;;;;5011826;28;20108;-74
2021/05/31 11:09:13;;;;;;;6.78;3.30;;;19.90;99.90;;;;;;5031163;28;20507;-73
2021/05/31 11:11:48;;;;;;;6.97;4.13;;;19.90;99.90;;;;;;5027590;28;20029;-71
2021/05/31 11:14:29;;;;;;;5.95;4.55;;;19.80;99.90;;;;;;5031387;28;20017;-72
2021/05/31 11:16:56;;;;;;;6.32;4.15;;;19.90;99.90;;;;;;5029783;28;20167;-70
2021/05/31 11:19:37;;;;;;;4.75;3.90;;;20.10;99.90;;;;;;5028881;28;20029;-73
2021/05/31 11:22:19;;;;;;;5.72;3.55;;;20.30;99.90;;;;;;5030732;28;20480;-70
2021/05/31 11:24:59;;;;;;;3.67;3.30;;;20.40;99.90;;;;;;5031801;28;20108;-71
2021/05/31 11:27:29;;;;;;;4.78;3.78;;;20.50;99.90;;;;;;5029952;28;20029;-72
2021/05/31 11:29:57;;;;;;;4.43;4.03;;;20.50;99.90;;;;;;5029970;28;20096;-72
2021/05/31 11:32:23;;;;;;;8.05;4.80;;;20.40;99.90;;;;;;5031861;28;20025;-72
2021/05/31 11:35:00;;;;;;;6.50;4.75;;;20.40;99.90;;;;;;5030362;28;20368;-73
2021/05/31 11:37:28;;;;;;;5.22;4.72;;;20.10;99.90;;;;;;5029451;28;20371;-72
2021/05/31 11:39:54;;;;;;;6.88;4.93;;;20.00;99.90;;;;;;5030116;28;20021;-72
2021/05/31 11:42:21;;;;;;;4.80;4.40;;;19.90;99.90;;;;;;5031076;28;20028;-72
2021/05/31 11:44:54;;;;;;;4.88;4.47;;;20.10;99.90;;;;;;5031039;28;20021;-72
2021/05/31 11:47:25;;;;;;;6.25;4.22;;;20.10;99.90;;;;;;5030818;28;20028;-71
2021/05/31 11:49:51;;;;;;;11.30;4.00;;;20.40;99.90;;;;;;5029437;28;20029;-72
2021/05/31 11:52:18;;;;;;;11.23;4.18;;;20.60;99.90;;;;;;5029142;28;20380;-69
2021/05/31 11:54:44;;;;;;;4.57;4.18;;;20.70;99.90;;;;;;5030378;28;20078;-72
2021/05/31 11:57:19;;;;;;;5.70;3.92;;;20.70;99.90;;;;;;5029468;28;20029;-71
2021/05/31 11:59:46;;;;;;;9.80;4.70;;;20.50;99.90;;;;;;5011862;28;20056;-72
2021/05/31 12:02:13;;;;;;;5.15;4.65;;;20.30;99.90;;;;;;5011724;28;20025;-71
2021/05/31 12:04:46;;;;;;;4.43;4.03;;;20.30;99.90;;;;;;5029936;28;20021;-72
2021/05/31 12:07:14;;;;;;;4.82;4.28;;;20.30;99.90;;;;;;5029711;28;20514;-70
2021/05/31 12:09:44;;;;;;;11.93;4.40;;;20.10;99.90;;;;;;5030404;28;20025;-72
2021/05/31 12:12:18;;;;;;;7.80;4.28;;;20.00;99.90;;;;;;5028080;28;20430;-74
2021/05/31 12:14:54;;;;;;;5.25;4.82;;;20.20;99.90;;;;;;5028974;28;20067;-71
2021/05/31 12:17:23;;;;;;;5.70;3.97;;;20.40;99.90;;;;;;5028966;28;20025;-71
2021/05/31 12:19:51;;;;;;;5.63;4.50;;;20.20;99.90;;;;;;5029427;28;20021;-72
2021/05/31 12:22:18;;;;;;;12.40;5.22;;;20.10;99.90;;;;;;5011890;28;20026;-72
2021/05/31 12:24:45;;;;;;;8.15;4.75;;;20.00;99.90;;;;;;5029799;28;20025;-71
2021/05/31 12:27:13;;;;;;;6.22;4.55;;;19.70;99.90;;;;;;5022932;28;20026;-71
2021/05/31 12:29:41;;;;;;;5.22;4.72;;;19.80;99.90;;;;;;5010315;28;20511;-73
2021/05/31 12:32:10;;;;;;;5.95;4.88;;;20.00;99.90;;;;;;5028598;28;20029;-73
2021/05/31 12:34:36;;;;;;;42.75;36.08;;;20.20;99.90;;;;;;5025295;28;20480;-72
2021/05/31 12:37:04;;;;;;;170.55;156.75;;;20.40;99.90;;;;;;5029048;28;20394;-73
2021/05/31 12:39:30;;;;;;;7.88;4.93;;;20.50;99.90;;;;;;5029355;28;20109;-72
2021/05/31 12:42:00;;;;;;;8.10;4.78;;;20.30;99.90;;;;;;5028775;28;20055;-72
2021/05/31 12:44:29;;;;;;;5.22;4.15;;;20.40;99.90;;;;;;5026589;28;20487;-72
2021/05/31 12:47:10;;;;;;;7.13;4.53;;;20.40;99.90;;;;;;5025330;28;20459;-72
2021/05/31 12:49:45;;;;;;;6.93;5.00;;;20.70;99.90;;;;;;5027291;28;20013;-71
2021/05/31 12:52:12;;;;;;;11.73;4.43;;;20.90;99.90;;;;;;5030030;28;20025;-73
2021/05/31 12:54:39;;;;;;;5.55;5.05;;;21.00;99.90;;;;;;5031506;28;20394;-73
2021/05/31 12:57:13;;;;;;;10.43;5.57;;;20.90;99.90;;;;;;5013368;28;20036;-72
2021/05/31 12:59:40;;;;;;;11.77;5.30;;;20.80;99.90;;;;;;5031793;28;20021;-73
2021/05/31 13:02:18;;;;;;;6.60;5.65;;;21.00;99.90;;;;;;5032061;28;20411;-73
2021/05/31 13:04:44;;;;;;;5.88;4.32;;;21.00;99.90;;;;;;5029190;28;20024;-72